createdAt,value
2023-07-29T00:00:55.245Z,24.79
2023-07-29T00:01:55.340Z,24.78
2023-07-29T00:02:55.337Z,24.78
2023-07-29T00:03:55.476Z,24.78
2023-07-29T00:04:55.424Z,24.78
2023-07-29T00:05:55.480Z,24.78
2023-07-29T00:06:55.535Z,24.77
2023-07-29T00:07:56.236Z,24.77
2023-07-29T00:08:55.630Z,24.78
2023-07-29T00:09:55.703Z,24.77
2023-07-29T00:10:55.726Z,24.77
2023-07-29T00:11:55.772Z,24.77
2023-07-29T00:12:55.831Z,24.77
2023-07-29T00:13:55.894Z,24.76
2023-07-29T00:14:55.933Z,24.76
2023-07-29T00:15:55.984Z,24.77
2023-07-29T00:16:56.101Z,24.76
2023-07-29T00:17:56.165Z,24.76
2023-07-29T00:18:56.138Z,24.75
2023-07-29T00:19:56.218Z,24.75
2023-07-29T00:20:56.286Z,24.75
2023-07-29T00:21:56.311Z,24.75
2023-07-29T00:22:56.360Z,24.74
2023-07-29T00:23:56.439Z,24.74
2023-07-29T00:24:56.446Z,24.74
2023-07-29T00:25:56.507Z,24.74
2023-07-29T00:26:56.591Z,24.74
2023-07-29T00:27:56.692Z,24.74
2023-07-29T00:28:56.695Z,24.74
2023-07-29T00:29:56.699Z,24.74
2023-07-29T00:30:56.733Z,24.74
2023-07-29T00:31:56.789Z,24.73
2023-07-29T00:32:56.751Z,24.73
2023-07-29T00:33:56.759Z,24.73
2023-07-29T00:34:56.811Z,24.73
2023-07-29T00:35:56.866Z,24.73
2023-07-29T00:36:56.946Z,24.72
2023-07-29T00:37:57.013Z,24.72
2023-07-29T00:38:57.021Z,24.72
2023-07-29T00:39:57.090Z,24.71
2023-07-29T00:40:57.265Z,24.71
2023-07-29T00:41:57.189Z,24.70
2023-07-29T00:42:57.258Z,24.70
2023-07-29T00:43:57.306Z,24.69
2023-07-29T00:44:57.352Z,24.68
2023-07-29T00:45:57.514Z,24.68
2023-07-29T00:46:57.482Z,24.68
2023-07-29T00:47:57.556Z,24.68
2023-07-29T00:48:57.545Z,24.67
2023-07-29T00:49:57.547Z,24.67
2023-07-29T00:50:57.556Z,24.67
2023-07-29T00:51:57.603Z,24.67
2023-07-29T00:52:57.725Z,24.67
2023-07-29T00:53:57.748Z,24.67
2023-07-29T00:54:57.790Z,24.66
2023-07-29T00:55:57.833Z,24.66
2023-07-29T00:56:57.869Z,24.66
2023-07-29T00:57:57.945Z,24.66
2023-07-29T00:58:58.020Z,24.66
2023-07-29T00:59:58.087Z,24.66
2023-07-29T01:00:58.109Z,24.65
2023-07-29T01:01:58.207Z,24.64
2023-07-29T01:02:58.269Z,24.64
2023-07-29T01:03:58.471Z,24.64
2023-07-29T01:04:58.328Z,24.64
2023-07-29T01:05:58.423Z,24.63
2023-07-29T01:06:58.455Z,24.63
2023-07-29T01:07:58.513Z,24.63
2023-07-29T01:08:58.576Z,24.64
2023-07-29T01:09:58.646Z,24.63
2023-07-29T01:10:58.710Z,24.64
2023-07-29T01:11:58.765Z,24.63
2023-07-29T01:12:58.820Z,24.63
2023-07-29T01:13:58.858Z,24.63
2023-07-29T01:14:58.927Z,24.64
2023-07-29T01:15:58.981Z,24.63
2023-07-29T01:16:59.044Z,24.63
2023-07-29T01:17:59.113Z,24.63
2023-07-29T01:18:59.168Z,24.63
2023-07-29T01:19:59.239Z,24.63
2023-07-29T01:20:59.273Z,24.63
2023-07-29T01:21:59.321Z,24.63
2023-07-29T01:22:59.410Z,24.62
2023-07-29T01:23:59.476Z,24.63
2023-07-29T01:24:59.536Z,24.62
2023-07-29T01:25:59.603Z,24.61
2023-07-29T01:26:59.628Z,24.61
2023-07-29T01:27:59.718Z,24.61
2023-07-29T01:28:59.788Z,24.61
2023-07-29T01:29:59.842Z,24.62
2023-07-29T01:30:59.891Z,24.61
2023-07-29T01:31:59.962Z,24.61
2023-07-29T01:33:00.091Z,24.60
2023-07-29T01:34:00.069Z,24.60
2023-07-29T01:35:00.152Z,24.59
2023-07-29T01:36:00.218Z,24.59
2023-07-29T01:37:02.682Z,24.60
2023-07-29T01:38:00.234Z,24.59
2023-07-29T01:39:00.268Z,24.59
2023-07-29T01:40:00.249Z,24.58
2023-07-29T01:41:00.252Z,24.58
2023-07-29T01:42:00.226Z,24.58
2023-07-29T01:43:00.237Z,24.58
2023-07-29T01:44:00.222Z,24.58
2023-07-29T01:45:00.227Z,24.58
2023-07-29T01:46:00.238Z,24.58
2023-07-29T01:47:00.324Z,24.58
2023-07-29T01:48:00.236Z,24.58
2023-07-29T01:49:00.232Z,24.58
2023-07-29T01:50:00.194Z,24.57
2023-07-29T01:51:00.205Z,24.57
2023-07-29T01:52:00.183Z,24.57
2023-07-29T01:53:00.188Z,24.57
2023-07-29T01:54:00.173Z,24.57
2023-07-29T01:55:00.171Z,24.57
2023-07-29T01:56:00.150Z,24.57
2023-07-29T01:57:00.153Z,24.56
2023-07-29T01:58:00.156Z,24.56
2023-07-29T01:59:00.156Z,24.57
2023-07-29T02:00:00.130Z,24.57
2023-07-29T02:01:00.139Z,24.56
2023-07-29T02:02:00.137Z,24.56
2023-07-29T02:03:00.169Z,24.56
2023-07-29T02:04:00.197Z,24.56
2023-07-29T02:05:00.118Z,24.55
2023-07-29T02:06:00.115Z,24.56
2023-07-29T02:07:00.086Z,24.55
2023-07-29T02:08:00.112Z,24.54
2023-07-29T02:09:00.077Z,24.54
2023-07-29T02:10:00.068Z,24.54
2023-07-29T02:11:00.054Z,24.54
2023-07-29T02:12:00.074Z,24.52
2023-07-29T02:13:00.082Z,24.53
2023-07-29T02:14:00.044Z,24.53
2023-07-29T02:15:00.168Z,24.53
2023-07-29T02:16:00.188Z,24.52
2023-07-29T02:17:00.266Z,24.52
2023-07-29T02:18:00.863Z,24.52
2023-07-29T02:19:00.377Z,24.52
2023-07-29T02:20:00.470Z,24.52
2023-07-29T02:21:00.521Z,24.51
2023-07-29T02:22:00.538Z,24.52
2023-07-29T02:23:00.621Z,24.51
2023-07-29T02:24:00.704Z,24.50
2023-07-29T02:25:00.728Z,24.51
2023-07-29T02:26:00.850Z,24.50
2023-07-29T02:27:00.881Z,24.51
2023-07-29T02:28:00.942Z,24.50
2023-07-29T02:29:00.973Z,24.50
2023-07-29T02:30:01.043Z,24.50
2023-07-29T02:31:01.126Z,24.51
2023-07-29T02:32:01.168Z,24.50
2023-07-29T02:33:01.318Z,24.49
2023-07-29T02:34:01.300Z,24.50
2023-07-29T02:35:01.366Z,24.48
2023-07-29T02:36:01.439Z,24.49
2023-07-29T02:37:01.476Z,24.48
2023-07-29T02:38:01.522Z,24.48
2023-07-29T02:39:01.592Z,24.48
2023-07-29T02:40:01.628Z,24.48
2023-07-29T02:41:01.690Z,24.48
2023-07-29T02:42:01.766Z,24.48
2023-07-29T02:43:01.828Z,24.49
2023-07-29T02:44:01.858Z,24.48
2023-07-29T02:45:01.949Z,24.48
2023-07-29T02:46:01.999Z,24.47
2023-07-29T02:47:02.120Z,24.47
2023-07-29T02:48:02.119Z,24.46
2023-07-29T02:49:02.173Z,24.46
2023-07-29T02:50:02.223Z,24.46
2023-07-29T02:51:02.283Z,24.47
2023-07-29T02:52:02.372Z,24.47
2023-07-29T02:53:02.385Z,24.47
2023-07-29T02:54:02.433Z,24.46
2023-07-29T02:55:02.536Z,24.47
2023-07-29T02:56:02.592Z,24.47
2023-07-29T02:57:02.639Z,24.46
2023-07-29T02:58:02.674Z,24.46
2023-07-29T02:59:02.741Z,24.46
2023-07-29T03:00:02.762Z,24.46
2023-07-29T03:01:02.865Z,24.46
2023-07-29T03:02:02.842Z,24.45
2023-07-29T03:03:02.993Z,24.45
2023-07-29T03:04:02.976Z,24.44
2023-07-29T03:05:03.002Z,24.44
2023-07-29T03:06:03.010Z,24.44
2023-07-29T03:07:03.091Z,24.44
2023-07-29T03:08:03.141Z,24.44
2023-07-29T03:09:03.198Z,24.43
2023-07-29T03:10:03.328Z,24.43
2023-07-29T03:11:03.273Z,24.44
2023-07-29T03:12:03.339Z,24.44
2023-07-29T03:13:03.358Z,24.43
2023-07-29T03:14:03.397Z,24.43
2023-07-29T03:15:03.468Z,24.42
2023-07-29T03:16:03.520Z,24.42
2023-07-29T03:17:03.667Z,24.43
2023-07-29T03:18:03.634Z,24.42
2023-07-29T03:19:03.611Z,24.42
2023-07-29T03:20:03.644Z,24.42
2023-07-29T03:21:03.680Z,24.41
2023-07-29T03:22:03.723Z,24.42
2023-07-29T03:23:03.766Z,24.41
2023-07-29T03:24:03.818Z,24.42
2023-07-29T03:25:03.887Z,24.41
2023-07-29T03:26:03.914Z,24.41
2023-07-29T03:27:03.964Z,24.42
2023-07-29T03:28:04.064Z,24.42
2023-07-29T03:29:04.083Z,24.41
2023-07-29T03:30:04.151Z,24.42
2023-07-29T03:31:04.175Z,24.41
2023-07-29T03:32:04.184Z,24.42
2023-07-29T03:33:04.264Z,24.41
2023-07-29T03:34:04.268Z,24.42
2023-07-29T03:35:04.322Z,24.42
2023-07-29T03:36:04.352Z,24.41
2023-07-29T03:37:04.378Z,24.41
2023-07-29T03:38:04.428Z,24.41
2023-07-29T03:39:04.433Z,24.41
2023-07-29T03:40:05.576Z,24.41
2023-07-29T03:41:04.578Z,24.40
2023-07-29T03:42:04.578Z,24.40
2023-07-29T03:43:04.607Z,24.40
2023-07-29T03:44:04.661Z,24.40
2023-07-29T03:45:04.691Z,24.40
2023-07-29T03:46:04.790Z,24.39
2023-07-29T03:47:04.737Z,24.40
2023-07-29T03:48:04.853Z,24.40
2023-07-29T03:49:04.810Z,24.40
2023-07-29T03:50:04.825Z,24.40
2023-07-29T03:51:04.892Z,24.40
2023-07-29T03:52:04.912Z,24.40
2023-07-29T03:53:04.946Z,24.39
2023-07-29T03:54:04.935Z,24.39
2023-07-29T03:55:04.957Z,24.39
2023-07-29T03:56:04.967Z,24.39
2023-07-29T03:57:05.105Z,24.39
2023-07-29T03:58:05.046Z,24.39
2023-07-29T03:59:05.128Z,24.39
2023-07-29T04:00:05.105Z,24.39
2023-07-29T04:01:05.194Z,24.39
2023-07-29T04:02:05.202Z,24.39
2023-07-29T04:03:05.338Z,24.39
2023-07-29T04:04:05.352Z,24.39
2023-07-29T04:05:05.399Z,24.38
2023-07-29T04:06:05.371Z,24.39
2023-07-29T04:07:05.406Z,24.38
2023-07-29T04:08:05.468Z,24.38
2023-07-29T04:09:05.521Z,24.38
2023-07-29T04:10:05.569Z,24.39
2023-07-29T04:11:05.584Z,24.37
2023-07-29T04:12:05.646Z,24.37
2023-07-29T04:13:05.657Z,24.38
2023-07-29T04:14:05.714Z,24.37
2023-07-29T04:15:05.746Z,24.38
2023-07-29T04:16:05.928Z,24.38
2023-07-29T04:17:05.789Z,24.37
2023-07-29T04:18:05.906Z,24.38
2023-07-29T04:19:05.863Z,24.38
2023-07-29T04:20:05.903Z,24.38
2023-07-29T04:21:05.909Z,24.37
2023-07-29T04:22:05.938Z,24.37
2023-07-29T04:23:05.957Z,24.37
2023-07-29T04:24:05.977Z,24.38
2023-07-29T04:25:05.992Z,24.38
2023-07-29T04:26:06.048Z,24.38
2023-07-29T04:27:06.049Z,24.38
2023-07-29T04:28:06.201Z,24.38
2023-07-29T04:29:06.121Z,24.38
2023-07-29T04:30:06.119Z,24.39
2023-07-29T04:31:06.168Z,24.38
2023-07-29T04:32:06.137Z,24.39
2023-07-29T04:33:06.175Z,24.39
2023-07-29T04:34:06.152Z,24.39
2023-07-29T04:35:06.166Z,24.39
2023-07-29T04:36:06.171Z,24.38
2023-07-29T04:37:06.172Z,24.39
2023-07-29T04:38:06.169Z,24.39
2023-07-29T04:39:06.282Z,24.39
2023-07-29T04:40:06.206Z,24.39
2023-07-29T04:41:06.229Z,24.40
2023-07-29T04:42:06.216Z,24.40
2023-07-29T04:43:06.224Z,24.41
2023-07-29T04:44:06.231Z,24.40
2023-07-29T04:45:06.272Z,24.40
2023-07-29T04:46:06.375Z,24.40
2023-07-29T04:47:06.335Z,24.40
2023-07-29T04:48:06.396Z,24.40
2023-07-29T04:49:06.369Z,24.39
2023-07-29T04:50:06.410Z,24.40
2023-07-29T04:51:06.460Z,24.40
2023-07-29T04:52:06.476Z,24.40
2023-07-29T04:53:06.514Z,24.40
2023-07-29T04:54:06.574Z,24.40
2023-07-29T04:55:06.608Z,24.40
2023-07-29T04:56:06.619Z,24.40
2023-07-29T04:57:06.633Z,24.40
2023-07-29T04:58:06.643Z,24.40
2023-07-29T04:59:06.624Z,24.39
2023-07-29T05:00:06.622Z,24.40
2023-07-29T05:01:06.688Z,24.39
2023-07-29T05:02:06.677Z,24.40
2023-07-29T05:03:06.696Z,24.39
2023-07-29T05:04:06.697Z,24.39
2023-07-29T05:05:06.690Z,24.39
2023-07-29T05:06:06.737Z,24.39
2023-07-29T05:07:06.755Z,24.39
2023-07-29T05:08:06.784Z,24.40
2023-07-29T05:09:06.810Z,24.39
2023-07-29T05:10:06.813Z,24.39
2023-07-29T05:11:06.847Z,24.39
2023-07-29T05:12:06.839Z,24.40
2023-07-29T05:13:06.876Z,24.40
2023-07-29T05:14:06.882Z,24.41
2023-07-29T05:15:06.928Z,24.41
2023-07-29T05:16:06.971Z,24.42
2023-07-29T05:17:06.959Z,24.41
2023-07-29T05:18:06.965Z,24.42
2023-07-29T05:19:06.964Z,24.43
2023-07-29T05:20:06.988Z,24.42
2023-07-29T05:21:07.004Z,24.42
2023-07-29T05:22:07.031Z,24.42
2023-07-29T05:23:07.038Z,24.43
2023-07-29T05:24:07.038Z,24.43
2023-07-29T05:25:07.084Z,24.43
2023-07-29T05:26:07.112Z,24.43
2023-07-29T05:27:07.120Z,24.44
2023-07-29T05:28:07.174Z,24.43
2023-07-29T05:29:07.164Z,24.44
2023-07-29T05:30:07.211Z,24.44
2023-07-29T05:31:07.243Z,24.43
2023-07-29T05:32:07.280Z,24.44
2023-07-29T05:33:07.381Z,24.43
2023-07-29T05:34:07.373Z,24.45
2023-07-29T05:35:07.370Z,24.44
2023-07-29T05:36:07.407Z,24.44
2023-07-29T05:37:07.485Z,24.44
2023-07-29T05:38:07.516Z,24.45
2023-07-29T05:39:07.477Z,24.45
2023-07-29T05:40:07.507Z,24.45
2023-07-29T05:41:07.506Z,24.44
2023-07-29T05:42:07.548Z,24.44
2023-07-29T05:43:07.518Z,24.45
2023-07-29T05:44:09.850Z,24.44
2023-07-29T05:45:07.518Z,24.44
2023-07-29T05:46:07.563Z,24.44
2023-07-29T05:47:07.571Z,24.44
2023-07-29T05:48:07.591Z,24.44
2023-07-29T05:49:07.488Z,24.44
2023-07-29T05:50:07.511Z,24.43
2023-07-29T05:51:07.501Z,24.44
2023-07-29T05:52:07.508Z,24.43
2023-07-29T05:53:07.480Z,24.44
2023-07-29T05:54:07.481Z,24.44
2023-07-29T05:55:07.480Z,24.43
2023-07-29T05:56:07.489Z,24.43
2023-07-29T05:57:07.447Z,24.43
2023-07-29T05:58:07.463Z,24.42
2023-07-29T05:59:07.469Z,24.43
2023-07-29T06:00:07.449Z,24.43
2023-07-29T06:01:07.533Z,24.43
2023-07-29T06:02:07.426Z,24.43
2023-07-29T06:03:07.550Z,24.44
2023-07-29T06:04:07.461Z,24.45
2023-07-29T06:05:07.409Z,24.45
2023-07-29T06:06:07.416Z,24.46
2023-07-29T06:07:07.410Z,24.47
2023-07-29T06:08:07.400Z,24.47
2023-07-29T06:09:07.388Z,24.52
2023-07-29T06:10:07.393Z,24.54
2023-07-29T06:11:07.384Z,24.54
2023-07-29T06:12:07.400Z,24.54
2023-07-29T06:13:07.362Z,24.54
2023-07-29T06:14:07.363Z,24.58
2023-07-29T06:15:07.419Z,24.59
2023-07-29T06:16:07.323Z,24.61
2023-07-29T06:17:07.436Z,24.61
2023-07-29T06:18:07.325Z,24.61
2023-07-29T06:19:07.319Z,24.61
2023-07-29T06:20:07.335Z,24.60
2023-07-29T06:21:07.328Z,24.60
2023-07-29T06:22:07.300Z,24.60
2023-07-29T06:23:07.301Z,24.59
2023-07-29T06:24:09.946Z,24.58
2023-07-29T06:25:07.400Z,24.57
2023-07-29T06:26:07.275Z,24.57
2023-07-29T06:27:07.285Z,24.57
2023-07-29T06:28:07.287Z,24.56
2023-07-29T06:29:07.254Z,24.56
2023-07-29T06:30:07.258Z,24.56
2023-07-29T06:31:07.296Z,24.56
2023-07-29T06:32:07.256Z,24.55
2023-07-29T06:33:07.275Z,24.56
2023-07-29T06:34:07.266Z,24.55
2023-07-29T06:35:07.246Z,24.55
2023-07-29T06:36:07.220Z,24.54
2023-07-29T06:37:07.235Z,24.55
2023-07-29T06:38:07.239Z,24.54
2023-07-29T06:39:07.198Z,24.54
2023-07-29T06:40:07.215Z,24.55
2023-07-29T06:41:07.194Z,24.55
2023-07-29T06:42:07.204Z,24.54
2023-07-29T06:43:07.200Z,24.55
2023-07-29T06:44:07.183Z,24.55
2023-07-29T06:45:07.192Z,24.55
2023-07-29T06:46:07.201Z,24.55
2023-07-29T06:47:07.153Z,24.55
2023-07-29T06:48:07.208Z,24.55
2023-07-29T06:49:07.139Z,24.57
2023-07-29T06:50:07.132Z,24.57
2023-07-29T06:51:07.132Z,24.56
2023-07-29T06:52:07.101Z,24.57
2023-07-29T06:53:07.129Z,24.58
2023-07-29T06:54:07.192Z,24.58
2023-07-29T06:55:07.229Z,24.59
2023-07-29T06:56:07.294Z,24.60
2023-07-29T06:57:07.341Z,24.59
2023-07-29T06:58:07.430Z,24.59
2023-07-29T06:59:07.479Z,24.59
2023-07-29T07:00:07.526Z,24.60
2023-07-29T07:01:07.579Z,24.60
2023-07-29T07:02:07.646Z,24.61
2023-07-29T07:03:07.775Z,24.63
2023-07-29T07:04:07.788Z,24.63
2023-07-29T07:05:07.825Z,24.66
2023-07-29T07:06:07.882Z,24.70
2023-07-29T07:07:07.993Z,24.74
2023-07-29T07:08:08.020Z,24.75
2023-07-29T07:09:08.083Z,24.77
2023-07-29T07:10:08.164Z,24.80
2023-07-29T07:11:08.182Z,24.80
2023-07-29T07:12:08.250Z,24.80
2023-07-29T07:13:08.322Z,24.85
2023-07-29T07:14:08.393Z,24.85
2023-07-29T07:15:08.408Z,24.86
2023-07-29T07:16:08.449Z,24.85
2023-07-29T07:17:10.734Z,24.88
2023-07-29T07:18:08.423Z,24.92
2023-07-29T07:19:08.426Z,24.98
2023-07-29T07:20:08.412Z,25.00
2023-07-29T07:21:08.429Z,25.00
2023-07-29T07:22:08.404Z,25.00
2023-07-29T07:23:08.382Z,25.02
2023-07-29T07:24:08.388Z,25.04
2023-07-29T07:25:09.071Z,25.04
2023-07-29T07:26:08.378Z,25.04
2023-07-29T07:27:08.375Z,25.03
2023-07-29T07:28:08.400Z,25.03
2023-07-29T07:29:08.358Z,25.03
2023-07-29T07:30:08.384Z,25.02
2023-07-29T07:31:08.337Z,25.01
2023-07-29T07:32:08.435Z,25.02
2023-07-29T07:33:08.371Z,25.01
2023-07-29T07:34:08.363Z,25.01
2023-07-29T07:35:08.330Z,25.01
2023-07-29T07:36:08.308Z,25.02
2023-07-29T07:37:08.320Z,25.02
2023-07-29T07:38:08.296Z,25.02
2023-07-29T07:39:08.307Z,25.03
2023-07-29T07:40:08.284Z,25.04
2023-07-29T07:41:08.284Z,25.04
2023-07-29T07:42:08.302Z,25.05
2023-07-29T07:43:08.280Z,25.05
2023-07-29T07:44:08.269Z,25.06
2023-07-29T07:45:08.260Z,25.06
2023-07-29T07:46:08.258Z,25.06
2023-07-29T07:47:08.247Z,25.07
2023-07-29T07:48:08.260Z,25.07
2023-07-29T07:49:08.239Z,25.08
2023-07-29T07:50:08.267Z,25.06
2023-07-29T07:51:08.219Z,25.08
2023-07-29T07:52:08.212Z,25.08
2023-07-29T07:53:08.216Z,25.09
2023-07-29T07:54:08.956Z,25.12
2023-07-29T07:55:08.187Z,25.12
2023-07-29T07:56:08.216Z,25.13
2023-07-29T07:57:08.198Z,25.12
2023-07-29T07:58:08.193Z,25.14
2023-07-29T07:59:08.218Z,25.14
2023-07-29T08:00:08.246Z,25.17
2023-07-29T08:01:08.292Z,25.19
2023-07-29T08:02:08.330Z,25.19
2023-07-29T08:03:08.389Z,25.19
2023-07-29T08:04:08.456Z,25.19
2023-07-29T08:05:08.427Z,25.20
2023-07-29T08:06:10.936Z,25.19
2023-07-29T08:07:08.416Z,25.19
2023-07-29T08:08:08.426Z,25.19
2023-07-29T08:09:08.412Z,25.19
2023-07-29T08:10:08.437Z,25.19
2023-07-29T08:11:08.389Z,25.19
2023-07-29T08:12:08.407Z,25.18
2023-07-29T08:13:08.373Z,25.18
2023-07-29T08:14:08.407Z,25.18
2023-07-29T08:15:08.363Z,25.17
2023-07-29T08:16:08.432Z,25.17
2023-07-29T08:17:08.349Z,25.17
2023-07-29T08:18:08.374Z,25.17
2023-07-29T08:19:08.388Z,25.18
2023-07-29T08:20:08.355Z,25.17
2023-07-29T08:21:08.362Z,25.18
2023-07-29T08:22:08.343Z,25.18
2023-07-29T08:23:08.369Z,25.18
2023-07-29T08:24:08.368Z,25.18
2023-07-29T08:25:08.337Z,25.18
2023-07-29T08:26:08.984Z,25.17
2023-07-29T08:27:08.324Z,25.17
2023-07-29T08:28:08.337Z,25.17
2023-07-29T08:29:08.320Z,25.18
2023-07-29T08:30:08.354Z,25.18
2023-07-29T08:31:08.351Z,25.20
2023-07-29T08:32:08.296Z,25.20
2023-07-29T08:33:08.302Z,25.19
2023-07-29T08:34:08.301Z,25.20
2023-07-29T08:35:08.279Z,25.19
2023-07-29T08:36:08.248Z,25.20
2023-07-29T08:37:08.264Z,25.20
2023-07-29T08:38:08.223Z,25.19
2023-07-29T08:39:08.373Z,25.19
2023-07-29T08:40:08.229Z,25.20
2023-07-29T08:41:08.211Z,25.20
2023-07-29T08:42:08.242Z,25.21
2023-07-29T08:43:08.233Z,25.21
2023-07-29T08:44:09.687Z,25.23
2023-07-29T08:45:08.235Z,25.23
2023-07-29T08:46:08.182Z,25.25
2023-07-29T08:47:08.292Z,25.26
2023-07-29T08:48:08.224Z,25.27
2023-07-29T08:49:08.209Z,25.28
2023-07-29T08:50:08.188Z,25.31
2023-07-29T08:51:08.168Z,25.33
2023-07-29T08:52:08.174Z,25.37
2023-07-29T08:53:08.141Z,25.39
2023-07-29T08:54:08.139Z,25.42
2023-07-29T08:55:08.146Z,25.44
2023-07-29T08:56:08.147Z,25.47
2023-07-29T08:57:08.150Z,25.47
2023-07-29T08:58:08.130Z,25.48
2023-07-29T08:59:08.117Z,25.48
2023-07-29T09:00:08.110Z,25.50
2023-07-29T09:01:08.209Z,25.52
2023-07-29T09:02:08.118Z,25.54
2023-07-29T09:03:08.174Z,25.55
2023-07-29T09:04:08.088Z,25.56
2023-07-29T09:05:08.130Z,25.57
2023-07-29T09:06:08.076Z,25.60
2023-07-29T09:07:08.068Z,25.60
2023-07-29T09:08:08.068Z,25.61
2023-07-29T09:09:08.051Z,25.61
2023-07-29T09:10:08.051Z,25.62
2023-07-29T09:11:08.025Z,25.63
2023-07-29T09:12:08.044Z,25.64
2023-07-29T09:13:08.054Z,25.68
2023-07-29T09:14:08.021Z,25.70
2023-07-29T09:15:08.019Z,25.73
2023-07-29T09:16:08.014Z,25.76
2023-07-29T09:17:08.010Z,25.79
2023-07-29T09:18:08.036Z,25.82
2023-07-29T09:19:07.965Z,25.85
2023-07-29T09:20:07.985Z,25.88
2023-07-29T09:21:07.967Z,25.90
2023-07-29T09:22:07.972Z,25.90
2023-07-29T09:23:07.941Z,25.90
2023-07-29T09:24:07.959Z,25.90
2023-07-29T09:25:07.950Z,25.90
2023-07-29T09:26:07.964Z,25.92
2023-07-29T09:27:07.930Z,25.95
2023-07-29T09:28:07.975Z,25.96
2023-07-29T09:29:07.917Z,25.97
2023-07-29T09:30:07.973Z,25.99
2023-07-29T09:31:07.928Z,26.00
2023-07-29T09:32:07.901Z,25.99
2023-07-29T09:33:07.923Z,25.99
2023-07-29T09:34:07.900Z,25.99
2023-07-29T09:35:07.931Z,26.01
2023-07-29T09:36:07.874Z,26.03
2023-07-29T09:37:07.870Z,26.04
2023-07-29T09:38:07.863Z,26.06
2023-07-29T09:39:07.865Z,26.08
2023-07-29T09:40:07.931Z,26.10
2023-07-29T09:41:07.994Z,26.11
2023-07-29T09:42:08.047Z,26.13
2023-07-29T09:43:08.090Z,26.14
2023-07-29T09:44:08.140Z,26.16
2023-07-29T09:45:08.201Z,26.16
2023-07-29T09:46:08.371Z,26.18
2023-07-29T09:47:08.350Z,26.18
2023-07-29T09:48:08.442Z,26.20
2023-07-29T09:49:08.449Z,26.21
2023-07-29T09:50:08.500Z,26.22
2023-07-29T09:51:08.578Z,26.24
2023-07-29T09:52:08.610Z,26.25
2023-07-29T09:53:08.663Z,26.25
2023-07-29T09:54:08.702Z,26.25
2023-07-29T09:55:08.800Z,26.26
2023-07-29T09:56:08.845Z,26.26
2023-07-29T09:57:08.869Z,26.27
2023-07-29T09:58:08.934Z,26.26
2023-07-29T09:59:08.981Z,26.26
2023-07-29T10:00:09.040Z,26.25
2023-07-29T10:01:09.119Z,26.26
2023-07-29T10:02:09.214Z,26.25
2023-07-29T10:03:09.356Z,26.26
2023-07-29T10:04:11.909Z,26.27
2023-07-29T10:05:09.247Z,26.26
2023-07-29T10:06:09.236Z,26.27
2023-07-29T10:07:09.223Z,26.27
2023-07-29T10:08:09.211Z,26.28
2023-07-29T10:09:09.233Z,26.29
2023-07-29T10:10:09.230Z,26.31
2023-07-29T10:11:09.202Z,26.34
2023-07-29T10:12:09.201Z,26.34
2023-07-29T10:13:09.183Z,26.36
2023-07-29T10:14:09.425Z,26.38
2023-07-29T10:15:09.169Z,26.39
2023-07-29T10:16:09.218Z,26.40
2023-07-29T10:17:09.153Z,26.40
2023-07-29T10:18:09.172Z,26.39
2023-07-29T10:19:09.143Z,26.38
2023-07-29T10:20:09.163Z,26.40
2023-07-29T10:21:09.175Z,26.42
2023-07-29T10:22:09.144Z,26.43
2023-07-29T10:23:09.191Z,26.43
2023-07-29T10:24:09.128Z,26.44
2023-07-29T10:25:09.105Z,26.44
2023-07-29T10:26:09.152Z,26.45
2023-07-29T10:27:09.122Z,26.46
2023-07-29T10:28:09.174Z,26.46
2023-07-29T10:29:09.111Z,26.45
2023-07-29T10:30:09.086Z,26.46
2023-07-29T10:31:09.130Z,26.46
2023-07-29T10:32:09.062Z,26.45
2023-07-29T10:33:09.104Z,26.44
2023-07-29T10:34:09.072Z,26.44
2023-07-29T10:35:09.040Z,26.44
2023-07-29T10:36:09.059Z,26.43
2023-07-29T10:37:09.042Z,26.42
2023-07-29T10:38:09.036Z,26.41
2023-07-29T10:39:09.042Z,26.40
2023-07-29T10:40:09.017Z,26.40
2023-07-29T10:41:09.017Z,26.40
2023-07-29T10:42:09.021Z,26.39
2023-07-29T10:43:08.995Z,26.39
2023-07-29T10:44:09.016Z,26.38
2023-07-29T10:45:09.000Z,26.39
2023-07-29T10:46:16.345Z,26.41
2023-07-29T10:47:09.981Z,26.43
2023-07-29T10:48:09.015Z,26.42
2023-07-29T10:49:08.978Z,26.42
2023-07-29T10:50:08.976Z,26.42
2023-07-29T10:51:08.942Z,26.41
2023-07-29T10:52:08.965Z,26.42
2023-07-29T10:53:08.938Z,26.44
2023-07-29T10:54:08.944Z,26.44
2023-07-29T10:55:08.944Z,26.44
2023-07-29T10:56:08.929Z,26.44
2023-07-29T10:57:08.912Z,26.46
2023-07-29T10:58:08.950Z,26.47
2023-07-29T10:59:08.982Z,26.48
2023-07-29T11:00:09.047Z,26.50
2023-07-29T11:01:09.087Z,26.52
2023-07-29T11:02:09.094Z,26.53
2023-07-29T11:03:09.183Z,26.55
2023-07-29T11:04:09.168Z,26.55
2023-07-29T11:05:09.311Z,26.56
2023-07-29T11:06:09.215Z,26.56
2023-07-29T11:07:09.245Z,26.56
2023-07-29T11:08:09.292Z,26.55
2023-07-29T11:09:09.312Z,26.54
2023-07-29T11:10:09.356Z,26.53
2023-07-29T11:11:09.401Z,26.52
2023-07-29T11:12:09.427Z,26.52
2023-07-29T11:13:09.446Z,26.52
2023-07-29T11:14:09.474Z,26.51
2023-07-29T11:15:09.551Z,26.53
2023-07-29T11:16:09.633Z,26.54
2023-07-29T11:17:11.610Z,26.55
2023-07-29T11:18:09.604Z,26.55
2023-07-29T11:19:09.634Z,26.55
2023-07-29T11:20:09.670Z,26.55
2023-07-29T11:21:09.679Z,26.54
2023-07-29T11:22:09.720Z,26.54
2023-07-29T11:23:09.740Z,26.54
2023-07-29T11:24:09.761Z,26.56
2023-07-29T11:25:09.808Z,26.56
2023-07-29T11:26:09.841Z,26.55
2023-07-29T11:27:09.858Z,26.55
2023-07-29T11:28:09.939Z,26.55
2023-07-29T11:29:09.938Z,26.54
2023-07-29T11:30:09.957Z,26.55
2023-07-29T11:31:10.029Z,26.55
2023-07-29T11:32:10.038Z,26.56
2023-07-29T11:33:10.133Z,26.57
2023-07-29T11:34:10.079Z,26.58
2023-07-29T11:35:10.106Z,26.59
2023-07-29T11:36:10.136Z,26.60
2023-07-29T11:37:10.208Z,26.61
2023-07-29T11:38:10.191Z,26.60
2023-07-29T11:39:10.228Z,26.58
2023-07-29T11:40:10.267Z,26.58
2023-07-29T11:41:10.301Z,26.58
2023-07-29T11:42:10.335Z,26.56
2023-07-29T11:43:10.358Z,26.56
2023-07-29T11:44:10.385Z,26.56
2023-07-29T11:45:10.430Z,26.56
2023-07-29T11:46:10.444Z,26.56
2023-07-29T11:47:10.511Z,26.57
2023-07-29T11:48:10.514Z,26.56
2023-07-29T11:49:10.529Z,26.56
2023-07-29T11:50:10.560Z,26.55
2023-07-29T11:51:10.607Z,26.56
2023-07-29T11:52:10.622Z,26.56
2023-07-29T11:53:10.653Z,26.56
2023-07-29T11:54:10.675Z,26.56
2023-07-29T11:55:10.715Z,26.56
2023-07-29T11:56:10.714Z,26.56
2023-07-29T11:57:10.793Z,26.56
2023-07-29T11:58:10.795Z,26.55
2023-07-29T11:59:10.819Z,26.56
2023-07-29T12:00:10.832Z,26.56
2023-07-29T12:01:10.911Z,26.55
2023-07-29T12:02:10.916Z,26.56
2023-07-29T12:03:11.036Z,26.57
2023-07-29T12:04:11.012Z,26.57
2023-07-29T12:05:10.968Z,26.58
2023-07-29T12:06:11.013Z,26.59
2023-07-29T12:07:11.011Z,26.58
2023-07-29T12:08:11.051Z,26.58
2023-07-29T12:09:11.072Z,26.58
2023-07-29T12:10:11.138Z,26.58
2023-07-29T12:11:11.126Z,26.59
2023-07-29T12:12:11.165Z,26.59
2023-07-29T12:13:11.195Z,26.59
2023-07-29T12:14:11.198Z,26.60
2023-07-29T12:15:11.264Z,26.59
2023-07-29T12:16:11.259Z,26.60
2023-07-29T12:17:11.380Z,26.61
2023-07-29T12:18:11.450Z,26.61
2023-07-29T12:19:11.374Z,26.60
2023-07-29T12:20:11.382Z,26.60
2023-07-29T12:21:11.388Z,26.60
2023-07-29T12:22:11.413Z,26.59
2023-07-29T12:23:11.472Z,26.59
2023-07-29T12:24:11.475Z,26.59
2023-07-29T12:25:11.492Z,26.59
2023-07-29T12:26:11.541Z,26.59
2023-07-29T12:27:11.558Z,26.59
2023-07-29T12:28:11.653Z,26.58
2023-07-29T12:29:11.598Z,26.58
2023-07-29T12:30:11.619Z,26.58
2023-07-29T12:31:11.648Z,26.58
2023-07-29T12:32:11.675Z,26.59
2023-07-29T12:33:11.689Z,26.59
2023-07-29T12:34:11.694Z,26.60
2023-07-29T12:35:11.763Z,26.61
2023-07-29T12:36:11.826Z,26.62
2023-07-29T12:37:11.781Z,26.62
2023-07-29T12:38:11.799Z,26.64
2023-07-29T12:39:11.839Z,26.64
2023-07-29T12:40:11.862Z,26.65
2023-07-29T12:41:11.914Z,26.64
2023-07-29T12:42:11.870Z,26.65
2023-07-29T12:43:11.892Z,26.65
2023-07-29T12:44:12.338Z,26.65
2023-07-29T12:45:11.953Z,26.65
2023-07-29T12:46:11.983Z,26.65
2023-07-29T12:47:11.989Z,26.64
2023-07-29T12:48:12.031Z,26.65
2023-07-29T12:49:12.033Z,26.64
2023-07-29T12:50:12.072Z,26.63
2023-07-29T12:51:12.166Z,26.63
2023-07-29T12:52:12.108Z,26.63
2023-07-29T12:53:12.136Z,26.62